ETND

Details ICAO ETND
Name Diepholz
Region Germany - Military
Timezone Europe/Berlin (UTC+1.0)
Plans Departing 4
Arriving 4
Stats Elevation 127 ft / 39 m (AMSL)
Location 52.585725° 8.341035°
Runways 1
Magnetic Variation 2.265° E
Sunrise 2017-12-11 07:29:08 UTC / 2017-12-11 08:29:08 Local
Sunset 2017-12-11 15:13:32 UTC / 2017-12-11 16:13:32 Local
Advertisement - Login to hide

Runways

ID Width Length Bearing (true) Bearing (mag) Surface Threshold Offset Overrun Length
08 148 ft / 45 m 4,235 ft / 1,291 m 84.54° 82.28° Asphalt 39 ft / 12 m 0 ft / 0 m
26 148 ft / 45 m 4,235 ft / 1,291 m 264.55° 262.29° Asphalt 0 ft / 0 m 0 ft / 0 m

Approach Navaids

Runway Type Ident Frequency Range Bearing (true) Bearing (mag) Slope Elevation
26 Localiser IDIW 108.35 MHz 18 nm / 33 km 264.50° 262.24° - 127 ft / 39 m (AMSL)
26 Glidescope IDIW 108.35 MHz 10 nm / 19 km 264.50° 262.24° 3.20° 127 ft / 39 m (AMSL)

Map

Weather


0- 5 10 15 20 25 30 35+ Temperature / ° C

Clouds and Precipitation
Forecast for 2017-12-11 12:00 UTC. Updated 35 minutes ago

Ground ~20,000 ft ~40,000 ft Winds

METAR

ETND 111120Z 09006KT 9999 FEW020 BKN030 OVC050 M00/M02 Q0985 BLU

TAF

Not found

Frequencies

Tower 119.82 MHz BREMEN INFO
Approach 124.65 MHz BREMEN RADAR
Tower 122.10 MHz TWR
Warning: Do not use this data for real-world aviation or navigation. No guarantee of current accuracy is given.